Time;durP1;ratioP1;P1;durP2;ratioP2;P2;SDS_P1;SDS_P2;PMS_P1;PMS_P2;Temp;Humidity;BMP_temperature;BMP_pressure;BME280_temperature;BME280_humidity;BME280_pressure;Samples;Min_cycle;Max_cycle;Signal;HPM_P1;HPM_P2
2023/09/22 00:02:03;;;;;;;;;;;;;;;19.15;43.13;98952.47;4952736;28;98198;-63
2023/09/22 00:04:30;;;;;;;;;;;;;;;19.13;43.34;98957.50;4908281;28;98252;-56
2023/09/22 00:06:56;;;;;;;;;;;;;;;19.12;43.20;98959.44;4924013;28;98662;-63
2023/09/22 00:09:22;;;;;;;;;;;;;;;19.09;43.21;98954.69;4944001;28;98008;-62
2023/09/22 00:11:49;;;;;;;;;;;;;;;19.07;43.35;98956.22;4948519;28;112142;-63
2023/09/22 00:14:15;;;;;;;;;;;;;;;19.06;43.30;98960.91;4961119;28;99728;-56
2023/09/22 00:16:41;;;;;;;;;;;;;;;19.03;43.41;98958.88;4948046;28;99500;-56
2023/09/22 00:19:08;;;;;;;;;;;;;;;19.01;43.41;98954.91;4927352;28;98572;-56
2023/09/22 00:21:34;;;;;;;;;;;;;;;18.97;43.40;98959.53;4929624;28;99215;-56
2023/09/22 00:24:02;;;;;;;;;;;;;;;18.94;43.35;98960.22;4931912;28;103914;-63
2023/09/22 00:26:28;;;;;;;;;;;;;;;18.91;43.31;98959.03;4946775;28;98279;-63
2023/09/22 00:28:54;;;;;;;;;;;;;;;18.89;43.35;98953.13;4946347;28;99322;-56
2023/09/22 00:31:20;;;;;;;;;;;;;;;18.85;43.33;98955.78;4946624;28;97884;-56
2023/09/22 00:33:46;;;;;;;;;;;;;;;18.84;43.44;98965.13;4958625;28;98222;-63
2023/09/22 00:36:14;;;;;;;;;;;;;;;18.82;43.43;98975.63;4923794;28;114029;-63
2023/09/22 00:38:41;;;;;;;;;;;;;;;18.80;43.40;99031.72;4949245;28;98745;-56
2023/09/22 00:41:07;;;;;;;;;;;;;;;18.79;43.61;99038.31;4950942;28;101740;-62
2023/09/22 00:43:33;;;;;;;;;;;;;;;18.77;43.54;99041.38;4956385;28;98276;-56
2023/09/22 00:45:59;;;;;;;;;;;;;;;18.78;43.44;99033.97;4952745;28;99134;-56
2023/09/22 00:48:30;;;;;;;;;;;;;;;18.78;43.33;99042.16;4953983;28;99018;-63
2023/09/22 00:50:56;;;;;;;;;;;;;;;18.77;43.49;99038.66;4905004;28;99439;-57
2023/09/22 00:53:24;;;;;;;;;;;;;;;18.77;43.41;99044.13;4943897;28;98945;-56
2023/09/22 00:55:50;;;;;;;;;;;;;;;18.79;43.55;99047.28;4927144;28;99765;-56
2023/09/22 00:58:16;;;;;;;;;;;;;;;18.78;43.36;99042.97;4956976;28;108317;-63
2023/09/22 01:00:47;;;;;;;;;;;;;;;18.79;43.55;99041.84;4946951;28;98108;-56
2023/09/22 01:03:13;;;;;;;;;;;;;;;18.78;43.67;99040.22;4932606;28;98466;-63
2023/09/22 01:05:39;;;;;;;;;;;;;;;18.78;43.32;99037.50;4929152;28;98133;-56
2023/09/22 01:08:05;;;;;;;;;;;;;;;18.79;43.41;99032.84;4940546;28;98067;-63
2023/09/22 01:10:36;;;;;;;;;;;;;;;18.79;43.54;99027.41;4945004;28;98523;-56
2023/09/22 01:13:04;;;;;;;;;;;;;;;18.78;43.39;99032.03;4953692;28;98402;-63
2023/09/22 01:15:32;;;;;;;;;;;;;;;18.79;43.61;99020.00;4956046;28;98788;-57
2023/09/22 01:17:59;;;;;;;;;;;;;;;18.79;43.34;99028.19;4937664;28;98183;-62
2023/09/22 01:20:25;;;;;;;;;;;;;;;18.80;43.53;99037.16;4939538;28;98133;-62
2023/09/22 01:22:51;;;;;;;;;;;;;;;18.80;43.54;99040.69;4936696;28;98366;-62
2023/09/22 01:25:18;;;;;;;;;;;;;;;18.80;43.71;99043.41;4936512;28;98701;-63
2023/09/22 01:27:44;;;;;;;;;;;;;;;18.80;43.43;99046.13;4941558;28;98182;-56
2023/09/22 01:30:10;;;;;;;;;;;;;;;18.81;43.61;99044.19;4935155;28;98119;-56
2023/09/22 01:32:40;;;;;;;;;;;;;;;18.80;43.65;99061.72;4940624;28;98350;-56
2023/09/22 01:35:09;;;;;;;;;;;;;;;18.80;43.57;99065.25;4923739;28;98152;-62
2023/09/22 01:37:45;;;;;;;;;;;;;;;18.79;43.68;99063.66;4938982;28;97887;-56
2023/09/22 01:40:13;;;;;;;;;;;;;;;18.77;43.53;99068.69;4950631;28;98221;-62
2023/09/22 01:42:39;;;;;;;;;;;;;;;18.75;43.49;99068.25;4939850;28;98432;-56
2023/09/22 01:45:05;;;;;;;;;;;;;;;18.74;43.69;99071.31;4921291;28;129518;-62
2023/09/22 01:47:33;;;;;;;;;;;;;;;18.72;43.56;99082.59;4950938;28;109335;-56
2023/09/22 01:49:59;;;;;;;;;;;;;;;18.70;43.81;99079.44;4948747;28;98146;-56
2023/09/22 01:52:25;;;;;;;;;;;;;;;18.71;43.78;99089.22;4938102;28;99229;-63
2023/09/22 01:54:51;;;;;;;;;;;;;;;18.74;43.77;99091.22;4931828;28;98048;-56
2023/09/22 01:57:19;;;;;;;;;;;;;;;18.76;43.83;99094.41;4940887;28;98252;-56
2023/09/22 01:59:45;;;;;;;;;;;;;;;18.79;43.78;99103.81;4943366;28;98186;-63
2023/09/22 02:02:13;;;;;;;;;;;;;;;18.83;43.69;99101.97;4905857;28;98081;-62
2023/09/22 02:04:40;;;;;;;;;;;;;;;18.85;43.65;99099.66;4939059;28;98095;-56
2023/09/22 02:07:07;;;;;;;;;;;;;;;18.89;43.53;99101.31;4915546;28;98014;-63
2023/09/22 02:09:34;;;;;;;;;;;;;;;18.92;43.47;99113.47;4942101;28;98223;-56
2023/09/22 02:12:00;;;;;;;;;;;;;;;18.96;43.69;99119.03;4935534;28;98090;-62
2023/09/22 02:14:26;;;;;;;;;;;;;;;18.99;43.46;99123.78;4957760;28;99855;-63
2023/09/22 02:16:56;;;;;;;;;;;;;;;19.01;43.66;99116.78;4909846;28;97899;-60
2023/09/22 02:19:21;;;;;;;;;;;;;;;19.04;43.56;99120.75;4924383;28;98726;-63
2023/09/22 02:21:47;;;;;;;;;;;;;;;19.06;43.86;99124.72;4952727;28;98451;-57
2023/09/22 02:24:13;;;;;;;;;;;;;;;19.07;43.70;99131.75;4939965;28;116442;-58
2023/09/22 02:26:39;;;;;;;;;;;;;;;19.09;43.68;99132.19;4948222;28;98044;-56
2023/09/22 02:29:05;;;;;;;;;;;;;;;19.11;43.76;99140.03;4953774;28;98259;-56
2023/09/22 02:31:32;;;;;;;;;;;;;;;19.12;43.71;99130.69;4954945;28;99122;-62
2023/09/22 02:33:58;;;;;;;;;;;;;;;19.13;44.11;99138.53;4956386;28;99311;-58
2023/09/22 02:36:24;;;;;;;;;;;;;;;19.15;43.81;99131.94;4958554;28;99204;-56
2023/09/22 02:38:50;;;;;;;;;;;;;;;19.17;43.67;99144.06;4946594;28;98202;-63
2023/09/22 02:41:17;;;;;;;;;;;;;;;19.17;43.93;99138.59;4939293;28;98203;-63
2023/09/22 02:43:43;;;;;;;;;;;;;;;19.19;43.76;99141.78;4944120;28;98457;-62
2023/09/22 02:46:09;;;;;;;;;;;;;;;19.23;43.67;99152.78;4961914;28;110750;-62
2023/09/22 02:48:35;;;;;;;;;;;;;;;19.23;43.88;99153.56;4926749;28;98525;-62
2023/09/22 02:51:06;;;;;;;;;;;;;;;19.24;43.84;99160.63;4948445;28;97958;-56
2023/09/22 02:53:32;;;;;;;;;;;;;;;19.25;43.80;99156.72;4943057;28;98226;-56
2023/09/22 02:56:05;;;;;;;;;;;;;;;19.27;43.64;99164.59;4948559;28;98045;-62
2023/09/22 02:58:31;;;;;;;;;;;;;;;19.26;43.85;99172.00;4943651;28;98348;-63
2023/09/22 03:00:57;;;;;;;;;;;;;;;19.27;43.89;99186.44;4953226;28;98663;-56
2023/09/22 03:03:24;;;;;;;;;;;;;;;19.26;43.97;99174.72;4959449;28;97970;-56
2023/09/22 03:05:50;;;;;;;;;;;;;;;19.26;44.22;99180.19;4927724;28;97995;-56
2023/09/22 03:08:16;;;;;;;;;;;;;;;19.26;44.02;99177.44;4951666;28;108264;-62
2023/09/22 03:10:42;;;;;;;;;;;;;;;19.25;44.23;99189.50;4929802;28;98421;-62
2023/09/22 03:13:08;;;;;;;;;;;;;;;19.25;44.18;99203.16;4948035;28;98963;-62
2023/09/22 03:15:35;;;;;;;;;;;;;;;19.24;43.94;99195.34;4929822;28;98154;-56
2023/09/22 03:18:03;;;;;;;;;;;;;;;19.24;43.91;99198.06;4944060;28;98511;-62
2023/09/22 03:20:29;;;;;;;;;;;;;;;19.23;43.96;99199.22;4930309;28;98657;-62
2023/09/22 03:22:56;;;;;;;;;;;;;;;19.23;44.04;99200.00;4903992;28;98042;-63
2023/09/22 03:25:22;;;;;;;;;;;;;;;19.21;44.12;99207.75;4927067;28;98644;-62
2023/09/22 03:27:48;;;;;;;;;;;;;;;19.23;44.12;99212.88;4906334;28;98180;-56
2023/09/22 03:30:17;;;;;;;;;;;;;;;19.22;43.88;99219.50;4947305;28;98926;-56
2023/09/22 03:32:43;;;;;;;;;;;;;;;19.20;44.32;99225.28;4943154;28;98407;-63
2023/09/22 03:35:09;;;;;;;;;;;;;;;19.19;44.15;99228.38;4927974;28;98333;-62
2023/09/22 03:37:36;;;;;;;;;;;;;;;19.17;44.09;99223.25;4947862;28;98119;-62
2023/09/22 03:40:20;;;;;;;;;;;;;;;19.16;44.08;99229.88;4943704;28;101052;-62
2023/09/22 03:42:46;;;;;;;;;;;;;;;19.15;44.17;99225.56;4940544;28;99080;-62
2023/09/22 03:45:13;;;;;;;;;;;;;;;19.12;44.08;99223.53;4924917;28;99289;-56
2023/09/22 03:47:39;;;;;;;;;;;;;;;19.09;44.21;99221.50;4955832;28;98632;-62
2023/09/22 03:50:05;;;;;;;;;;;;;;;19.05;44.20;99218.69;4931026;28;99093;-62
2023/09/22 03:52:31;;;;;;;;;;;;;;;19.03;44.15;99222.94;4932008;28;97899;-62
2023/09/22 03:55:01;;;;;;;;;;;;;;;19.02;44.15;99226.78;4942008;28;97946;-56
2023/09/22 03:57:27;;;;;;;;;;;;;;;19.00;44.05;99221.69;4941640;28;97940;-62
2023/09/22 03:59:53;;;;;;;;;;;;;;;18.97;44.09;99236.06;4950915;28;99151;-56
2023/09/22 04:02:20;;;;;;;;;;;;;;;18.97;44.05;99227.06;4955238;28;100475;-62
2023/09/22 04:04:46;;;;;;;;;;;;;;;18.95;44.22;99224.72;4940139;28;99472;-63
2023/09/22 04:07:12;;;;;;;;;;;;;;;18.96;44.06;99233.69;4941781;28;99306;-58
2023/09/22 04:09:38;;;;;;;;;;;;;;;18.94;44.04;99234.03;4945935;28;98009;-62
2023/09/22 04:12:04;;;;;;;;;;;;;;;18.94;44.22;99231.28;4959212;28;98383;-58
2023/09/22 04:14:31;;;;;;;;;;;;;;;18.92;44.20;99225.41;4937575;28;98995;-62
2023/09/22 04:16:57;;;;;;;;;;;;;;;18.92;44.31;99219.16;4952776;28;97890;-62
2023/09/22 04:19:24;;;;;;;;;;;;;;;18.92;44.26;99216.44;4942389;28;98244;-61
2023/09/22 04:21:52;;;;;;;;;;;;;;;18.91;44.01;99218.38;4951160;28;99759;-62
2023/09/22 04:24:20;;;;;;;;;;;;;;;18.91;44.01;99231.22;4930080;28;98480;-62
2023/09/22 04:26:48;;;;;;;;;;;;;;;18.89;44.15;99226.91;4929194;28;98885;-56
2023/09/22 04:29:14;;;;;;;;;;;;;;;18.91;44.16;99228.50;4957598;28;99343;-62
2023/09/22 04:31:40;;;;;;;;;;;;;;;18.90;43.90;99235.88;4960005;28;98805;-62
2023/09/22 04:34:07;;;;;;;;;;;;;;;18.88;44.16;99236.22;4940839;28;98883;-55
2023/09/22 04:36:33;;;;;;;;;;;;;;;18.87;44.25;99251.03;4909917;28;98062;-62
2023/09/22 04:39:00;;;;;;;;;;;;;;;18.86;44.21;99260.38;4941806;28;98241;-56
2023/09/22 04:41:26;;;;;;;;;;;;;;;18.86;44.04;99257.66;4947363;28;99911;-62
2023/09/22 04:43:55;;;;;;;;;;;;;;;18.85;44.10;99261.50;4945959;28;97934;-62
2023/09/22 04:46:22;;;;;;;;;;;;;;;18.86;44.06;99265.03;4959524;28;98155;-56
2023/09/22 04:48:48;;;;;;;;;;;;;;;18.88;43.95;99266.25;4949816;28;100093;-56
2023/09/22 04:51:14;;;;;;;;;;;;;;;18.90;44.20;99271.38;4927926;28;102100;-56
2023/09/22 04:53:41;;;;;;;;;;;;;;;18.90;44.04;99257.72;4931557;28;98237;-56
2023/09/22 04:56:08;;;;;;;;;;;;;;;18.88;44.11;99260.81;4943366;28;98228;-56
2023/09/22 04:58:34;;;;;;;;;;;;;;;18.88;44.09;99270.94;4936695;28;98829;-62
2023/09/22 05:01:01;;;;;;;;;;;;;;;18.89;44.25;99264.31;4936473;28;98312;-56
2023/09/22 05:03:30;;;;;;;;;;;;;;;18.87;44.13;99264.69;4925657;28;97947;-62
2023/09/22 05:06:06;;;;;;;;;;;;;;;18.87;44.11;99263.91;4922748;28;98348;-62
2023/09/22 05:08:33;;;;;;;;;;;;;;;18.87;44.04;99272.88;4926081;28;98099;-56
2023/09/22 05:11:01;;;;;;;;;;;;;;;18.89;43.94;99267.06;4940500;28;98101;-63
2023/09/22 05:13:27;;;;;;;;;;;;;;;18.91;44.02;99283.09;4922952;28;98296;-56
2023/09/22 05:15:54;;;;;;;;;;;;;;;18.91;44.09;99291.28;4924785;28;97966;-56
2023/09/22 05:18:20;;;;;;;;;;;;;;;18.91;44.11;99299.47;4928388;28;102126;-56
2023/09/22 05:20:45;;;;;;;;;;;;;;;18.91;44.10;99294.03;4939001;28;129684;-62
2023/09/22 05:23:12;;;;;;;;;;;;;;;18.91;43.95;99308.47;4926924;28;98293;-56
2023/09/22 05:25:41;;;;;;;;;;;;;;;18.92;44.15;99318.22;4929667;28;99592;-56
2023/09/22 05:28:10;;;;;;;;;;;;;;;18.96;44.05;99310.94;4941917;28;99833;-56
2023/09/22 05:30:38;;;;;;;;;;;;;;;18.97;44.14;99317.16;4905285;28;99565;-56
2023/09/22 05:33:06;;;;;;;;;;;;;;;18.96;44.14;99321.06;4939753;28;99093;-56
2023/09/22 05:35:33;;;;;;;;;;;;;;;18.94;44.07;99321.38;4940085;28;98116;-62
2023/09/22 05:38:01;;;;;;;;;;;;;;;18.92;44.12;99320.97;4930399;28;98886;-56
2023/09/22 05:40:27;;;;;;;;;;;;;;;18.91;44.15;99322.13;4905345;28;98294;-62
2023/09/22 05:42:53;;;;;;;;;;;;;;;18.92;44.10;99317.44;4938545;28;99289;-56
2023/09/22 05:45:19;;;;;;;;;;;;;;;18.92;44.23;99320.97;4937617;28;99334;-62
2023/09/22 05:47:45;;;;;;;;;;;;;;;18.92;44.14;99318.22;4906322;28;99038;-56
2023/09/22 05:50:12;;;;;;;;;;;;;;;18.95;44.21;99319.47;4941436;28;97912;-56
2023/09/22 05:52:38;;;;;;;;;;;;;;;18.94;44.02;99317.88;4914397;28;98244;-56
2023/09/22 05:55:05;;;;;;;;;;;;;;;18.92;44.40;99317.44;4928486;28;98462;-62
2023/09/22 05:57:33;;;;;;;;;;;;;;;18.87;44.32;99321.22;4923887;28;98342;-57
2023/09/22 05:59:59;;;;;;;;;;;;;;;18.87;44.17;99315.75;4909638;28;98137;-56
2023/09/22 06:02:26;;;;;;;;;;;;;;;18.86;44.23;99319.63;4912804;28;97892;-62
2023/09/22 06:04:55;;;;;;;;;;;;;;;18.86;44.40;99317.72;4925816;28;98326;-62
2023/09/22 06:07:22;;;;;;;;;;;;;;;18.86;44.27;99327.81;4928711;28;99644;-56
2023/09/22 06:09:48;;;;;;;;;;;;;;;18.85;44.34;99328.97;4924345;28;99489;-57
2023/09/22 06:12:14;;;;;;;;;;;;;;;18.84;44.32;99328.16;4929716;28;98278;-56
2023/09/22 06:14:40;;;;;;;;;;;;;;;18.82;44.33;99343.28;4933094;28;101967;-62
2023/09/22 06:17:06;;;;;;;;;;;;;;;18.82;44.42;99337.84;4938262;28;98582;-62
2023/09/22 06:19:32;;;;;;;;;;;;;;;18.81;44.34;99363.56;4941953;28;127234;-56
2023/09/22 06:21:59;;;;;;;;;;;;;;;18.82;44.56;99363.22;4926694;28;99531;-56
2023/09/22 06:24:25;;;;;;;;;;;;;;;18.81;44.51;99352.63;4943774;28;98205;-56
2023/09/22 06:26:52;;;;;;;;;;;;;;;18.80;44.42;99351.84;4929324;28;98263;-56
2023/09/22 06:29:18;;;;;;;;;;;;;;;18.79;44.57;99352.22;4931632;28;97868;-61
2023/09/22 06:31:44;;;;;;;;;;;;;;;18.76;44.34;99350.16;4944624;28;99046;-55
2023/09/22 06:34:10;;;;;;;;;;;;;;;18.75;44.85;99343.91;4934633;28;98242;-62
2023/09/22 06:36:36;;;;;;;;;;;;;;;18.72;44.73;99368.38;4911748;28;98851;-60
2023/09/22 06:39:07;;;;;;;;;;;;;;;18.71;44.55;99370.31;4928095;28;99956;-56
2023/09/22 06:41:35;;;;;;;;;;;;;;;18.75;44.71;99375.88;4942124;28;98135;-56
2023/09/22 06:44:02;;;;;;;;;;;;;;;18.77;44.56;99368.91;4928107;28;100005;-56
2023/09/22 06:46:29;;;;;;;;;;;;;;;18.79;44.63;99366.66;4908400;28;98200;-56
2023/09/22 06:48:56;;;;;;;;;;;;;;;18.80;44.58;99376.41;4910894;28;98155;-56
2023/09/22 06:51:22;;;;;;;;;;;;;;;18.82;44.43;99374.16;4909631;28;99305;-62
2023/09/22 06:53:48;;;;;;;;;;;;;;;18.84;44.45;99384.72;4929682;28;98041;-56
2023/09/22 06:56:18;;;;;;;;;;;;;;;18.83;44.62;99389.38;4941090;28;98379;-62
2023/09/22 06:58:43;;;;;;;;;;;;;;;18.85;44.34;99387.06;4941927;28;99089;-56
2023/09/22 07:01:10;;;;;;;;;;;;;;;18.91;44.52;99387.63;4936425;28;128674;-56
2023/09/22 07:03:37;;;;;;;;;;;;;;;18.97;44.37;99399.09;4939909;28;99203;-56
2023/09/22 07:06:08;;;;;;;;;;;;;;;19.04;44.24;99399.28;4936024;28;98598;-62
2023/09/22 07:08:35;;;;;;;;;;;;;;;19.16;44.25;99399.22;4929842;28;98280;-55
2023/09/22 07:11:04;;;;;;;;;;;;;;;19.22;44.54;99403.28;4940628;28;108409;-55
2023/09/22 07:13:31;;;;;;;;;;;;;;;19.24;44.33;99427.50;4926203;28;98466;-61
2023/09/22 07:15:58;;;;;;;;;;;;;;;19.24;44.70;99438.44;4907337;28;98503;-55
2023/09/22 07:18:25;;;;;;;;;;;;;;;19.23;44.38;99434.91;4925745;28;98049;-61
2023/09/22 07:20:52;;;;;;;;;;;;;;;19.24;44.64;99446.63;4906167;28;100557;-55
2023/09/22 07:23:19;;;;;;;;;;;;;;;19.23;44.32;99453.25;4940855;28;98393;-60
2023/09/22 07:25:45;;;;;;;;;;;;;;;19.25;44.45;99454.47;4938334;28;98189;-62
2023/09/22 07:28:11;;;;;;;;;;;;;;;19.28;44.46;99463.91;4928581;28;100155;-55
2023/09/22 07:30:38;;;;;;;;;;;;;;;19.38;44.24;99468.88;4940321;28;98068;-55
2023/09/22 07:33:04;;;;;;;;;;;;;;;19.51;44.05;99469.59;4938769;28;98432;-62
2023/09/22 07:35:31;;;;;;;;;;;;;;;19.61;43.96;99469.09;4927111;28;99405;-56
2023/09/22 07:37:56;;;;;;;;;;;;;;;19.76;44.11;99470.25;4928141;28;100153;-55
2023/09/22 07:40:22;;;;;;;;;;;;;;;19.89;44.05;99473.72;4942272;28;101218;-56
2023/09/22 07:42:49;;;;;;;;;;;;;;;19.99;43.94;99481.38;4921920;28;120275;-56
2023/09/22 07:45:15;;;;;;;;;;;;;;;20.04;44.04;99475.63;4928607;28;98176;-62
2023/09/22 07:47:40;;;;;;;;;;;;;;;20.06;44.09;99476.06;4932083;28;106826;-56
2023/09/22 07:50:06;;;;;;;;;;;;;;;20.07;44.00;99486.66;4927647;28;98231;-62
2023/09/22 07:52:34;;;;;;;;;;;;;;;20.07;43.96;99478.44;4930643;28;99682;-62
2023/09/22 07:55:00;;;;;;;;;;;;;;;20.04;44.03;99481.91;4926604;28;98593;-62
2023/09/22 07:57:30;;;;;;;;;;;;;;;20.00;44.08;99485.69;4910043;28;104135;-62
2023/09/22 07:59:57;;;;;;;;;;;;;;;19.96;44.14;99482.06;4928010;28;99527;-62
2023/09/22 08:02:24;;;;;;;;;;;;;;;19.93;44.32;99489.06;4945850;28;98462;-62
2023/09/22 08:04:50;;;;;;;;;;;;;;;19.93;44.30;99482.78;4926175;28;97945;-55
2023/09/22 08:07:16;;;;;;;;;;;;;;;19.94;44.42;99492.56;4927191;28;98808;-62
2023/09/22 08:09:42;;;;;;;;;;;;;;;19.95;44.44;99497.69;4927014;28;99147;-56
2023/09/22 08:12:08;;;;;;;;;;;;;;;19.97;44.52;99502.81;4939142;28;98969;-61
2023/09/22 08:14:35;;;;;;;;;;;;;;;19.97;44.46;99506.34;4925382;28;98419;-62
2023/09/22 08:17:06;;;;;;;;;;;;;;;20.01;44.59;99509.97;4887116;28;99687;-55
2023/09/22 08:19:32;;;;;;;;;;;;;;;20.12;44.25;99521.13;4944613;28;98254;-55
2023/09/22 08:21:59;;;;;;;;;;;;;;;20.28;44.24;99523.88;4921123;28;99949;-62
2023/09/22 08:24:25;;;;;;;;;;;;;;;20.36;44.22;99522.91;4939119;28;98187;-55
2023/09/22 08:26:51;;;;;;;;;;;;;;;20.39;44.11;99524.91;4930732;28;99560;-56
2023/09/22 08:29:18;;;;;;;;;;;;;;;20.42;44.04;99529.69;4944301;28;98520;-55
2023/09/22 08:31:44;;;;;;;;;;;;;;;20.48;44.00;99531.00;4944387;28;98178;-55
2023/09/22 08:34:11;;;;;;;;;;;;;;;20.71;43.88;99535.81;4927241;28;99714;-62
2023/09/22 08:36:37;;;;;;;;;;;;;;;21.03;43.40;99518.16;4927799;28;98584;-56
2023/09/22 08:39:03;;;;;;;;;;;;;;;21.47;43.13;99531.56;4941713;28;109842;-55
2023/09/22 08:41:32;;;;;;;;;;;;;;;21.72;42.84;99537.50;4912387;28;98250;-56
2023/09/22 08:43:59;;;;;;;;;;;;;;;21.70;43.18;99547.25;4928809;28;99182;-56
2023/09/22 08:46:25;;;;;;;;;;;;;;;21.71;43.18;99548.84;4906006;28;98210;-56
2023/09/22 08:48:51;;;;;;;;;;;;;;;21.73;43.23;99555.56;4926835;28;98468;-62
2023/09/22 08:51:18;;;;;;;;;;;;;;;21.68;43.27;99557.78;4939975;28;98208;-62
2023/09/22 08:53:44;;;;;;;;;;;;;;;21.56;43.42;99558.75;4939381;28;98257;-56
2023/09/22 08:56:10;;;;;;;;;;;;;;;21.49;43.63;99562.13;4928040;28;98358;-62
2023/09/22 08:58:36;;;;;;;;;;;;;;;21.52;43.53;99557.88;4927459;28;98001;-56
2023/09/22 09:01:03;;;;;;;;;;;;;;;21.58;44.02;99550.19;4923595;28;98441;-56
2023/09/22 09:03:30;;;;;;;;;;;;;;;21.62;43.75;99545.56;4925848;28;100025;-56
2023/09/22 09:06:07;;;;;;;;;;;;;;;21.66;43.88;99560.91;4941595;28;97960;-62
2023/09/22 09:08:36;;;;;;;;;;;;;;;21.66;43.65;99554.63;4929445;28;97836;-62
2023/09/22 09:11:07;;;;;;;;;;;;;;;21.76;44.02;99559.50;4928453;28;97987;-61
2023/09/22 09:13:34;;;;;;;;;;;;;;;21.80;43.62;99555.66;4927763;28;99172;-57
2023/09/22 09:16:06;;;;;;;;;;;;;;;21.85;43.70;99567.50;4929433;28;102094;-62
2023/09/22 09:18:32;;;;;;;;;;;;;;;21.88;43.97;99569.50;4924854;28;98272;-62
2023/09/22 09:21:14;;;;;;;;;;;;;;;21.88;43.59;99564.81;4909695;28;99392;-56
2023/09/22 09:23:59;;;;;;;;;;;;;;;21.87;43.75;99565.19;4938839;28;98174;-56
2023/09/22 09:26:31;;;;;;;;;;;;;;;21.71;43.74;99571.56;4926985;28;100114;-56
2023/09/22 09:29:00;;;;;;;;;;;;;;;21.56;43.96;99575.19;4941122;28;98517;-62
2023/09/22 09:31:45;;;;;;;;;;;;;;;21.52;43.85;99579.81;4927250;28;98033;-62
2023/09/22 09:34:14;;;;;;;;;;;;;;;21.46;44.07;99573.06;4922165;28;98423;-56
2023/09/22 09:36:40;;;;;;;;;;;;;;;21.33;44.18;99575.13;4935190;28;98533;-62
2023/09/22 09:39:06;;;;;;;;;;;;;;;21.26;44.27;99578.50;4925875;28;98795;-63
2023/09/22 09:41:33;;;;;;;;;;;;;;;21.23;44.17;99575.69;4938140;28;116908;-63
2023/09/22 09:43:59;;;;;;;;;;;;;;;21.23;44.25;99575.69;4927174;28;99731;-62
2023/09/22 09:46:25;;;;;;;;;;;;;;;21.26;44.20;99574.94;4913924;28;97923;-56
2023/09/22 09:48:52;;;;;;;;;;;;;;;21.31;44.22;99564.50;4945421;28;105937;-56
2023/09/22 09:51:20;;;;;;;;;;;;;;;21.41;44.08;99568.63;4930851;28;98115;-62
2023/09/22 09:53:46;;;;;;;;;;;;;;;21.55;43.85;99554.44;4941437;28;98156;-56
2023/09/22 09:56:18;;;;;;;;;;;;;;;21.70;43.78;99553.53;4929596;28;108906;-56
2023/09/22 09:58:48;;;;;;;;;;;;;;;21.93;43.62;99566.47;4939075;28;107394;-62
2023/09/22 10:01:14;;;;;;;;;;;;;;;22.14;43.35;99555.91;4930890;28;100680;-56
2023/09/22 10:03:42;;;;;;;;;;;;;;;22.27;43.14;99560.03;4945839;28;98428;-56
2023/09/22 10:06:13;;;;;;;;;;;;;;;22.35;43.09;99563.69;4935425;28;98415;-62
2023/09/22 10:08:39;;;;;;;;;;;;;;;22.41;43.12;99569.66;4918933;28;98581;-56
2023/09/22 10:11:07;;;;;;;;;;;;;;;22.41;43.38;99573.19;4918777;28;98408;-56
2023/09/22 10:13:38;;;;;;;;;;;;;;;22.49;43.34;99576.84;4911061;28;98706;-62
2023/09/22 10:16:05;;;;;;;;;;;;;;;22.58;43.23;99571.09;4930727;28;98529;-56
2023/09/22 10:18:52;;;;;;;;;;;;;;;22.59;43.33;99575.41;4931003;28;98238;-56
2023/09/22 10:21:45;;;;;;;;;;;;;;;22.68;43.35;99574.00;4943625;28;97981;-56
2023/09/22 10:24:29;;;;;;;;;;;;;;;22.99;42.91;99580.34;4927209;28;98297;-62
2023/09/22 10:26:55;;;;;;;;;;;;;;;23.44;42.57;99578.56;4922718;28;98353;-56
2023/09/22 10:29:36;;;;;;;;;;;;;;;23.72;42.30;99584.41;4946443;28;98121;-63
2023/09/22 10:32:18;;;;;;;;;;;;;;;23.88;42.29;99575.91;4945455;28;97998;-56
2023/09/22 10:35:09;;;;;;;;;;;;;;;24.06;42.05;99569.81;4941565;28;100615;-63
2023/09/22 10:37:35;;;;;;;;;;;;;;;24.14;42.08;99575.00;4935594;28;98395;-56
2023/09/22 10:40:19;;;;;;;;;;;;;;;23.94;42.35;99582.66;4924472;28;98672;-62
2023/09/22 10:42:52;;;;;;;;;;;;;;;23.66;43.10;99577.66;4923769;28;98300;-63
2023/09/22 10:45:21;;;;;;;;;;;;;;;23.49;43.17;99576.25;4929180;28;98287;-56
2023/09/22 10:47:49;;;;;;;;;;;;;;;23.19;43.09;99572.78;4926922;28;99673;-56
2023/09/22 10:50:24;;;;;;;;;;;;;;;22.78;43.57;99567.06;4930439;28;101843;-56
2023/09/22 10:52:56;;;;;;;;;;;;;;;22.41;44.13;99569.66;4924419;28;98378;-56
2023/09/22 10:55:36;;;;;;;;;;;;;;;22.25;44.00;99572.56;4941892;28;98076;-56
2023/09/22 10:58:12;;;;;;;;;;;;;;;22.27;43.87;99575.72;4939960;28;99091;-56
2023/09/22 11:00:40;;;;;;;;;;;;;;;22.18;43.93;99584.19;4933121;28;99888;-62
2023/09/22 11:03:11;;;;;;;;;;;;;;;22.17;43.98;99574.38;4929146;28;98735;-62
2023/09/22 11:05:43;;;;;;;;;;;;;;;22.42;43.97;99577.53;4941819;28;105384;-56
2023/09/22 11:08:17;;;;;;;;;;;;;;;22.62;43.42;99571.94;4924528;28;97947;-56
2023/09/22 11:10:47;;;;;;;;;;;;;;;22.82;43.79;99575.38;4925486;28;98826;-62
2023/09/22 11:13:14;;;;;;;;;;;;;;;22.87;43.41;99581.34;4930748;28;98873;-63
2023/09/22 11:15:50;;;;;;;;;;;;;;;22.72;43.40;99585.84;4929550;28;98907;-62
2023/09/22 11:18:21;;;;;;;;;;;;;;;22.52;43.65;99593.38;4944218;28;98545;-62
2023/09/22 11:20:48;;;;;;;;;;;;;;;22.30;44.09;99588.69;4929983;28;99628;-56
2023/09/22 11:23:17;;;;;;;;;;;;;;;22.02;44.29;99591.72;4930131;28;98173;-62
2023/09/22 11:25:52;;;;;;;;;;;;;;;21.76;44.36;99600.66;4930451;28;98110;-62
2023/09/22 11:28:18;;;;;;;;;;;;;;;21.55;44.61;99603.78;4927155;28;99958;-56
2023/09/22 11:30:46;;;;;;;;;;;;;;;21.40;44.60;99616.41;4895280;28;98302;-62
2023/09/22 11:33:17;;;;;;;;;;;;;;;21.43;44.55;99609.41;4912625;28;98463;-56
2023/09/22 11:35:43;;;;;;;;;;;;;;;21.47;44.39;99610.28;4930065;28;99314;-56
2023/09/22 11:38:26;;;;;;;;;;;;;;;21.42;44.54;99607.78;4911131;28;98076;-62
2023/09/22 11:41:08;;;;;;;;;;;;;;;21.31;44.53;99604.81;4932307;28;98635;-56
2023/09/22 11:43:45;;;;;;;;;;;;;;;21.18;44.69;99612.41;4923482;28;98577;-62
2023/09/22 11:46:13;;;;;;;;;;;;;;;21.06;44.60;99617.97;4919619;28;98206;-62
2023/09/22 11:49:05;;;;;;;;;;;;;;;20.98;44.71;99627.19;4935780;28;98087;-62
2023/09/22 11:51:54;;;;;;;;;;;;;;;20.96;44.81;99637.72;4937595;28;98042;-56
2023/09/22 11:54:21;;;;;;;;;;;;;;;20.91;44.70;99641.53;4932919;28;98157;-62
2023/09/22 11:56:47;;;;;;;;;;;;;;;20.88;44.60;99639.50;4925384;28;99191;-62
2023/09/22 11:59:18;;;;;;;;;;;;;;;20.87;44.64;99637.09;4924924;28;99410;-62
2023/09/22 12:01:45;;;;;;;;;;;;;;;20.82;44.65;99644.44;4924679;28;99179;-62
2023/09/22 12:04:12;;;;;;;;;;;;;;;20.76;44.69;99648.63;4925013;28;98879;-62
2023/09/22 12:06:40;;;;;;;;;;;;;;;20.71;44.69;99651.63;4923345;28;100015;-56
2023/09/22 12:09:07;;;;;;;;;;;;;;;20.66;44.72;99651.88;4924170;28;99928;-56
2023/09/22 12:11:35;;;;;;;;;;;;;;;20.62;44.65;99644.72;4923594;28;98500;-62
2023/09/22 12:14:01;;;;;;;;;;;;;;;20.60;44.62;99642.38;4926977;28;98998;-62
2023/09/22 12:16:27;;;;;;;;;;;;;;;20.56;44.74;99653.22;4916816;28;98156;-56
2023/09/22 12:18:53;;;;;;;;;;;;;;;;;;4926747;28;99507;-62
2023/09/22 12:21:20;;;;;;;;;;;;;;;20.51;44.67;99647.19;4923414;28;98179;-56
2023/09/22 12:23:46;;;;;;;;;;;;;;;20.48;44.67;99651.44;4925529;28;99642;-56
2023/09/22 12:26:12;;;;;;;;;;;;;;;20.41;44.71;99658.66;4927198;28;98802;-56
2023/09/22 12:28:40;;;;;;;;;;;;;;;20.35;44.79;99658.13;4926801;28;98505;-62
2023/09/22 12:31:06;;;;;;;;;;;;;;;20.29;44.83;99665.81;4935590;28;98174;-62
2023/09/22 12:33:32;;;;;;;;;;;;;;;20.26;44.87;99661.03;4925954;28;98389;-62
2023/09/22 12:35:59;;;;;;;;;;;;;;;20.25;44.82;99666.84;4922327;28;103632;-56
2023/09/22 12:38:25;;;;;;;;;;;;;;;20.26;44.82;99671.19;4926390;28;98194;-56
2023/09/22 12:40:51;;;;;;;;;;;;;;;20.26;44.73;99673.91;4939300;28;99097;-62
2023/09/22 12:43:18;;;;;;;;;;;;;;;20.27;44.73;99672.75;4921346;28;98225;-56
2023/09/22 12:45:44;;;;;;;;;;;;;;;20.24;44.66;99666.06;4934563;28;100420;-62
2023/09/22 12:48:13;;;;;;;;;;;;;;;20.25;44.62;99686.00;4919830;28;99404;-61
2023/09/22 12:50:39;;;;;;;;;;;;;;;20.29;44.74;99678.69;4921866;28;99242;-61